createdAt,value
2019-01-21T00:00:48.896Z,38.92
2019-01-21T00:03:14.990Z,39.02
2019-01-21T00:05:40.858Z,39.12
2019-01-21T00:08:06.791Z,38.90
2019-01-21T00:10:32.781Z,38.87
2019-01-21T00:12:58.680Z,38.82
2019-01-21T00:15:24.577Z,38.82
2019-01-21T00:17:50.482Z,38.90
2019-01-21T00:20:16.360Z,38.91
2019-01-21T00:22:42.270Z,38.88
2019-01-21T00:25:08.215Z,38.86
2019-01-21T00:27:34.160Z,38.88
2019-01-21T00:30:00.224Z,38.87
2019-01-21T00:32:26.111Z,38.77
2019-01-21T00:34:52.341Z,38.95
2019-01-21T00:37:18.324Z,38.69
2019-01-21T00:39:44.220Z,38.82
2019-01-21T00:42:10.451Z,38.88
2019-01-21T00:44:36.388Z,38.90
2019-01-21T00:47:02.324Z,38.84
2019-01-21T00:49:28.531Z,38.84
2019-01-21T00:51:54.902Z,38.82
2019-01-21T00:54:22.728Z,38.85
2019-01-21T00:56:48.635Z,38.83
2019-01-21T00:59:14.533Z,38.95
2019-01-21T01:01:40.453Z,38.87
2019-01-21T01:04:06.347Z,38.87
2019-01-21T01:06:32.258Z,38.95
2019-01-21T01:08:58.166Z,39.25
2019-01-21T01:11:24.111Z,38.99
2019-01-21T01:13:50.014Z,38.88
2019-01-21T01:16:15.926Z,39.13
2019-01-21T01:18:41.830Z,39.13
2019-01-21T01:21:08.087Z,38.97
2019-01-21T01:23:33.984Z,39.05
2019-01-21T01:25:59.951Z,38.92
2019-01-21T01:28:25.844Z,39.02
2019-01-21T01:30:51.793Z,38.97
2019-01-21T01:33:17.699Z,39.43
2019-01-21T01:35:43.592Z,39.29
2019-01-21T01:38:09.542Z,39.04
2019-01-21T01:40:36.015Z,39.14
2019-01-21T01:43:02.233Z,38.98
2019-01-21T01:45:28.143Z,39.13
2019-01-21T01:47:58.103Z,38.98
2019-01-21T01:50:24.009Z,39.10
2019-01-21T01:52:49.917Z,38.98
2019-01-21T01:55:15.822Z,39.04
2019-01-21T01:57:41.718Z,39.09
2019-01-21T02:00:11.790Z,39.09
2019-01-21T02:02:37.694Z,38.98
2019-01-21T02:05:03.937Z,39.03
2019-01-21T02:07:29.837Z,39.31
2019-01-21T02:09:55.743Z,39.10
2019-01-21T02:12:21.668Z,38.95
2019-01-21T02:14:47.576Z,39.02
2019-01-21T02:17:13.871Z,39.02
2019-01-21T02:19:40.654Z,39.08
2019-01-21T02:22:06.555Z,39.08
2019-01-21T02:24:32.552Z,38.98
2019-01-21T02:27:00.165Z,38.94
2019-01-21T02:29:31.040Z,38.91
2019-01-21T02:32:11.896Z,38.95
2019-01-21T02:34:42.570Z,38.90
2019-01-21T02:37:22.766Z,38.96
2019-01-21T02:40:02.444Z,38.89
2019-01-21T02:42:32.993Z,39.02
2019-01-21T02:45:06.966Z,39.00
2019-01-21T02:47:34.772Z,39.08
2019-01-21T02:50:05.621Z,39.31
2019-01-21T02:52:45.509Z,39.25
2019-01-21T02:55:25.508Z,39.05
2019-01-21T02:57:59.088Z,39.07
2019-01-21T03:00:29.659Z,39.30
2019-01-21T03:03:00.429Z,39.17
2019-01-21T03:05:28.288Z,39.08
2019-01-21T03:08:14.528Z,39.04
2019-01-21T03:10:48.519Z,39.10
2019-01-21T03:13:26.048Z,39.21
2019-01-21T03:16:02.972Z,39.09
2019-01-21T03:18:33.587Z,38.91
2019-01-21T03:21:13.405Z,39.03
2019-01-21T03:23:41.215Z,39.05
2019-01-21T03:26:09.010Z,39.05
2019-01-21T03:28:43.190Z,39.03
2019-01-21T03:31:19.848Z,38.95
2019-01-21T03:33:59.700Z,38.92
2019-01-21T03:36:30.632Z,38.95
2019-01-21T03:38:58.481Z,39.03
2019-01-21T03:41:32.526Z,38.97
2019-01-21T03:44:06.132Z,39.16
2019-01-21T03:46:33.977Z,39.16
2019-01-21T03:49:05.085Z,39.19
2019-01-21T03:51:41.951Z,38.93
2019-01-21T03:54:09.755Z,39.03
2019-01-21T03:56:39.331Z,39.00
2019-01-21T03:59:19.205Z,39.01
2019-01-21T04:02:04.057Z,39.03
2019-01-21T04:04:37.646Z,38.84
2019-01-21T04:07:05.816Z,39.01
2019-01-21T04:09:36.609Z,39.32
2019-01-21T04:12:16.422Z,38.99
2019-01-21T04:15:00.908Z,38.97
2019-01-21T04:17:37.638Z,38.96
2019-01-21T04:20:14.564Z,38.93
2019-01-21T04:22:57.449Z,39.06
2019-01-21T04:25:28.019Z,38.94
2019-01-21T04:28:01.567Z,39.22
2019-01-21T04:30:29.370Z,39.01
2019-01-21T04:32:57.170Z,39.24
2019-01-21T04:35:41.677Z,39.03
2019-01-21T04:38:18.858Z,38.98
2019-01-21T04:40:46.660Z,39.06
2019-01-21T04:43:22.057Z,39.01
2019-01-21T04:45:55.820Z,39.03
2019-01-21T04:48:32.937Z,39.11
2019-01-21T04:50:56.383Z,39.21
2019-01-21T04:53:30.037Z,39.29
2019-01-21T04:56:10.597Z,39.24
2019-01-21T04:58:47.436Z,39.10
2019-01-21T05:01:24.085Z,39.25
2019-01-21T05:03:58.382Z,39.09
2019-01-21T05:06:26.329Z,39.05
2019-01-21T05:08:56.908Z,39.13
2019-01-21T05:11:30.797Z,38.91
2019-01-21T05:14:04.733Z,39.14
2019-01-21T05:16:32.531Z,38.95
2019-01-21T05:19:06.432Z,38.84
2019-01-21T05:21:49.375Z,38.77
2019-01-21T05:24:20.190Z,38.74
2019-01-21T05:26:53.805Z,38.71
2019-01-21T05:29:34.056Z,38.68
2019-01-21T05:32:01.863Z,38.83
2019-01-21T05:34:38.710Z,38.75
2019-01-21T05:37:06.555Z,38.69
2019-01-21T05:39:37.760Z,38.66
2019-01-21T05:42:08.429Z,38.64
2019-01-21T05:44:36.253Z,38.64
2019-01-21T05:47:06.956Z,38.67
2019-01-21T05:49:37.624Z,38.65
2019-01-21T05:52:17.772Z,38.69
2019-01-21T05:55:02.177Z,38.67
2019-01-21T05:57:39.140Z,38.55
2019-01-21T06:00:06.943Z,38.51
2019-01-21T06:02:37.769Z,38.77
2019-01-21T06:05:14.412Z,38.89
2019-01-21T06:07:45.290Z,38.84
2019-01-21T06:10:29.783Z,38.59
2019-01-21T06:13:15.879Z,38.68
2019-01-21T06:15:46.873Z,38.54
2019-01-21T06:18:33.428Z,38.46
2019-01-21T06:21:18.189Z,38.47
2019-01-21T06:23:55.140Z,38.41
2019-01-21T06:26:35.101Z,38.36
2019-01-21T06:29:05.666Z,38.43
2019-01-21T06:31:45.557Z,38.36
2019-01-21T06:34:13.366Z,38.39
2019-01-21T06:36:44.412Z,38.40
2019-01-21T06:39:30.773Z,38.62
2019-01-21T06:42:04.812Z,38.60
2019-01-21T06:44:32.633Z,38.47
2019-01-21T06:47:12.729Z,38.64
2019-01-21T06:49:40.550Z,38.52
2019-01-21T06:52:22.645Z,38.48
2019-01-21T06:54:50.264Z,38.43
2019-01-21T06:57:34.553Z,38.44
2019-01-21T07:00:19.347Z,38.38
2019-01-21T07:02:53.146Z,38.42
2019-01-21T07:05:29.887Z,38.37
2019-01-21T07:08:15.824Z,38.40
2019-01-21T07:10:43.629Z,38.37
2019-01-21T07:13:14.391Z,38.38
2019-01-21T07:15:54.306Z,38.64
2019-01-21T07:18:26.070Z,38.48
2019-01-21T07:20:56.167Z,38.57
2019-01-21T07:23:24.302Z,38.57
2019-01-21T07:25:52.168Z,38.52
2019-01-21T07:28:19.962Z,38.41
2019-01-21T07:31:00.143Z,38.45
2019-01-21T07:33:28.023Z,38.49
2019-01-21T07:35:58.648Z,38.44
2019-01-21T07:38:29.388Z,38.49
2019-01-21T07:41:02.991Z,38.49
2019-01-21T07:43:30.804Z,38.46
2019-01-21T07:46:01.366Z,38.41
2019-01-21T07:48:29.165Z,38.44
2019-01-21T07:51:06.248Z,38.39
2019-01-21T07:53:37.318Z,38.58
2019-01-21T07:56:22.030Z,38.51
2019-01-21T07:58:58.692Z,38.49
2019-01-21T08:01:29.280Z,38.41
2019-01-21T08:04:06.172Z,38.35
2019-01-21T08:06:35.033Z,38.35
2019-01-21T08:09:03.872Z,38.34
2019-01-21T08:11:31.677Z,38.41
2019-01-21T08:14:05.278Z,38.35
2019-01-21T08:16:33.075Z,38.25
2019-01-21T08:19:01.285Z,38.41
2019-01-21T08:21:31.883Z,38.67
2019-01-21T08:24:16.261Z,38.49
2019-01-21T08:27:00.623Z,38.47
2019-01-21T08:29:28.466Z,38.49
2019-01-21T08:31:56.275Z,38.37
2019-01-21T08:34:36.003Z,38.46
2019-01-21T08:37:07.045Z,38.38
2019-01-21T08:39:37.630Z,38.82
2019-01-21T08:42:08.544Z,38.46
2019-01-21T08:44:45.423Z,38.38
2019-01-21T08:47:25.341Z,38.38
2019-01-21T08:49:56.132Z,38.49
2019-01-21T08:52:29.986Z,38.32
2019-01-21T08:55:03.747Z,38.47
2019-01-21T08:57:43.942Z,38.38
2019-01-21T09:00:17.755Z,38.33
2019-01-21T09:02:54.585Z,38.49
2019-01-21T09:05:37.298Z,38.44
2019-01-21T09:08:08.105Z,38.51
2019-01-21T09:10:48.238Z,38.46
2019-01-21T09:13:16.048Z,38.43
2019-01-21T09:15:49.645Z,38.39
2019-01-21T09:18:29.528Z,38.40
2019-01-21T09:21:03.364Z,38.28
2019-01-21T09:23:31.176Z,38.34
2019-01-21T09:26:01.813Z,38.43
2019-01-21T09:28:29.634Z,38.30
2019-01-21T09:31:03.788Z,38.27
2019-01-21T09:33:37.843Z,38.28
2019-01-21T09:36:08.739Z,38.30
2019-01-21T09:38:42.349Z,38.19
2019-01-21T09:41:25.271Z,38.25
2019-01-21T09:43:56.098Z,38.25
2019-01-21T09:46:40.539Z,38.28
2019-01-21T09:49:06.732Z,38.25
2019-01-21T09:51:32.631Z,38.22
2019-01-21T09:53:58.534Z,38.22
2019-01-21T09:56:26.148Z,38.18
2019-01-21T09:58:52.144Z,38.35
2019-01-21T10:01:18.047Z,38.24
2019-01-21T10:03:43.977Z,38.28
2019-01-21T10:06:09.877Z,38.32
2019-01-21T10:08:40.691Z,38.29
2019-01-21T10:11:27.255Z,38.23
2019-01-21T10:14:01.370Z,38.22
2019-01-21T10:16:32.179Z,38.20
2019-01-21T10:19:06.052Z,38.24
2019-01-21T10:21:33.906Z,38.23
2019-01-21T10:24:01.784Z,38.25
2019-01-21T10:26:32.725Z,38.23
2019-01-21T10:29:19.047Z,38.61
2019-01-21T10:31:47.049Z,38.67
2019-01-21T10:34:14.847Z,38.33
2019-01-21T10:36:49.006Z,38.34
2019-01-21T10:39:28.830Z,38.52
2019-01-21T10:42:02.521Z,38.21
2019-01-21T10:44:33.493Z,38.18
2019-01-21T10:47:01.345Z,38.11
2019-01-21T10:49:47.249Z,38.09
2019-01-21T10:52:15.063Z,38.03
2019-01-21T10:54:48.485Z,38.17
2019-01-21T10:57:16.310Z,38.17
2019-01-21T10:59:52.708Z,38.13
2019-01-21T11:02:23.620Z,38.02
2019-01-21T11:04:51.426Z,38.02
2019-01-21T11:07:25.223Z,37.99
2019-01-21T11:09:53.026Z,38.05
2019-01-21T11:12:23.851Z,38.06
2019-01-21T11:14:51.654Z,37.99
2019-01-21T11:17:19.477Z,38.02
2019-01-21T11:20:04.457Z,37.97
2019-01-21T11:22:32.766Z,38.00
2019-01-21T11:25:09.955Z,38.02
2019-01-21T11:27:54.590Z,38.14
2019-01-21T11:30:22.438Z,37.99
2019-01-21T11:32:59.680Z,38.01
2019-01-21T11:35:27.590Z,37.98
2019-01-21T11:37:58.388Z,38.04
2019-01-21T11:40:29.288Z,38.24
2019-01-21T11:43:09.458Z,37.99
2019-01-21T11:45:40.366Z,37.97
2019-01-21T11:48:11.210Z,37.97
2019-01-21T11:50:41.838Z,37.94
2019-01-21T11:53:09.677Z,37.95
2019-01-21T11:55:49.519Z,37.96
2019-01-21T11:58:29.978Z,37.95
2019-01-21T12:00:57.958Z,37.95
2019-01-21T12:03:25.768Z,37.98
2019-01-21T12:05:52.969Z,37.99
2019-01-21T12:08:23.807Z,37.95
2019-01-21T12:11:08.424Z,37.92
2019-01-21T12:13:54.934Z,37.88
2019-01-21T12:16:28.516Z,37.96
2019-01-21T12:19:08.066Z,37.89
2019-01-21T12:21:38.628Z,38.31
2019-01-21T12:24:17.329Z,38.48
2019-01-21T12:26:48.014Z,38.16
2019-01-21T12:29:21.673Z,38.18
2019-01-21T12:31:52.265Z,38.18
2019-01-21T12:34:20.114Z,38.10
2019-01-21T12:36:47.913Z,38.28
2019-01-21T12:39:15.761Z,38.17
2019-01-21T12:41:52.964Z,38.31
2019-01-21T12:44:37.649Z,38.15
2019-01-21T12:47:14.577Z,38.70
2019-01-21T12:49:48.434Z,38.33
2019-01-21T12:52:19.357Z,38.28
2019-01-21T12:55:05.839Z,38.32
2019-01-21T12:57:51.621Z,38.32
2019-01-21T13:00:28.535Z,38.36
2019-01-21T13:03:02.295Z,38.64
2019-01-21T13:05:30.103Z,38.53
2019-01-21T13:08:06.995Z,38.49
2019-01-21T13:10:50.258Z,38.36
2019-01-21T13:13:18.048Z,38.41
2019-01-21T13:15:51.654Z,38.36
2019-01-21T13:18:22.286Z,38.36
2019-01-21T13:21:05.485Z,38.37
2019-01-21T13:23:35.966Z,38.39
2019-01-21T13:26:12.819Z,38.38
2019-01-21T13:28:40.621Z,38.39
2019-01-21T13:31:08.427Z,38.56
2019-01-21T13:33:36.523Z,38.33
2019-01-21T13:36:04.329Z,38.36
2019-01-21T13:38:38.344Z,38.44
2019-01-21T13:41:12.188Z,38.33
2019-01-21T13:43:43.324Z,38.37
2019-01-21T13:46:19.920Z,38.34
2019-01-21T13:48:47.727Z,38.29
2019-01-21T13:51:32.506Z,38.36
2019-01-21T13:54:03.624Z,38.29
2019-01-21T13:56:31.832Z,38.22
2019-01-21T13:59:02.649Z,38.20
2019-01-21T14:01:36.475Z,38.21
2019-01-21T14:04:04.283Z,38.19
2019-01-21T14:06:32.153Z,38.20
2019-01-21T14:09:00.005Z,38.20
2019-01-21T14:11:36.976Z,38.20
2019-01-21T14:14:11.185Z,38.24
2019-01-21T14:16:41.775Z,38.23
2019-01-21T14:19:12.387Z,38.28
2019-01-21T14:21:52.355Z,38.29
2019-01-21T14:24:20.156Z,38.21
2019-01-21T14:26:53.473Z,38.13
2019-01-21T14:29:24.528Z,38.13
2019-01-21T14:32:09.209Z,38.15
2019-01-21T14:34:46.194Z,38.13
2019-01-21T14:37:31.058Z,38.11
2019-01-21T14:40:10.874Z,38.09
2019-01-21T14:42:41.871Z,38.15
2019-01-21T14:45:28.050Z,38.10
2019-01-21T14:48:12.694Z,38.10
2019-01-21T14:50:40.496Z,38.06
2019-01-21T14:53:25.162Z,38.10
2019-01-21T14:55:52.984Z,38.08
2019-01-21T14:58:23.564Z,38.02
2019-01-21T15:00:54.615Z,38.05
2019-01-21T15:03:34.261Z,38.07
2019-01-21T15:06:07.891Z,38.03
2019-01-21T15:08:38.479Z,38.03
2019-01-21T15:11:06.268Z,38.00
2019-01-21T15:13:40.357Z,38.02
2019-01-21T15:16:08.300Z,38.04
2019-01-21T15:18:36.223Z,38.00
2019-01-21T15:21:06.914Z,38.05
2019-01-21T15:23:50.214Z,38.02
2019-01-21T15:26:27.031Z,37.99
2019-01-21T15:28:54.869Z,37.99
2019-01-21T15:31:25.667Z,38.01
2019-01-21T15:33:59.181Z,38.00
2019-01-21T15:36:29.843Z,38.12
2019-01-21T15:39:09.822Z,37.99
2019-01-21T15:41:43.457Z,38.02
2019-01-21T15:44:11.235Z,37.99
2019-01-21T15:46:47.935Z,38.07
2019-01-21T15:49:31.053Z,37.98
2019-01-21T15:52:01.642Z,38.01
2019-01-21T15:54:29.441Z,37.95
2019-01-21T15:56:57.248Z,37.96
2019-01-21T15:59:28.152Z,37.90
2019-01-21T16:01:59.098Z,37.95
2019-01-21T16:04:41.898Z,37.95
2019-01-21T16:07:10.314Z,37.94
2019-01-21T16:09:47.207Z,37.87
2019-01-21T16:12:23.828Z,37.87
2019-01-21T16:14:54.165Z,37.89
2019-01-21T16:17:38.671Z,37.95
2019-01-21T16:20:06.508Z,37.95
2019-01-21T16:22:52.251Z,37.86
2019-01-21T16:25:23.081Z,38.01
2019-01-21T16:27:54.035Z,38.00
2019-01-21T16:30:27.844Z,37.87
2019-01-21T16:32:55.818Z,38.09
2019-01-21T16:35:26.807Z,37.92
2019-01-21T16:38:00.649Z,38.06
2019-01-21T16:40:28.482Z,38.13
2019-01-21T16:42:54.514Z,38.21
2019-01-21T16:45:20.453Z,38.20
2019-01-21T16:47:46.367Z,38.15
2019-01-21T16:50:12.320Z,38.18
2019-01-21T16:52:38.223Z,38.27
2019-01-21T16:55:04.738Z,38.24
2019-01-21T16:57:30.948Z,38.18
2019-01-21T16:59:56.877Z,38.23
2019-01-21T17:02:22.785Z,38.18
2019-01-21T17:04:49.146Z,38.19
2019-01-21T17:07:17.855Z,38.25
2019-01-21T17:09:44.230Z,38.15
2019-01-21T17:12:10.493Z,38.20
2019-01-21T17:14:36.396Z,38.12
2019-01-21T17:17:05.704Z,38.20
2019-01-21T17:19:31.615Z,38.09
2019-01-21T17:21:57.538Z,38.07
2019-01-21T17:24:23.451Z,38.03
2019-01-21T17:26:49.737Z,37.97
2019-01-21T17:29:18.565Z,38.02
2019-01-21T17:31:47.519Z,38.03
2019-01-21T17:34:16.663Z,37.97
2019-01-21T17:36:42.969Z,38.02
2019-01-21T17:39:08.990Z,37.99
2019-01-21T17:41:34.980Z,38.02
2019-01-21T17:44:00.922Z,37.99
2019-01-21T17:46:26.816Z,37.97
2019-01-21T17:48:52.717Z,37.93
2019-01-21T17:51:18.619Z,37.89
2019-01-21T17:53:44.512Z,37.98
2019-01-21T17:56:10.470Z,37.91
2019-01-21T17:58:36.414Z,37.95
2019-01-21T18:01:02.721Z,37.92
2019-01-21T18:03:28.661Z,37.98
2019-01-21T18:05:55.042Z,38.05
2019-01-21T18:08:22.379Z,37.90
2019-01-21T18:10:48.716Z,38.05
2019-01-21T18:13:14.896Z,38.05
2019-01-21T18:15:41.190Z,38.06
2019-01-21T18:18:07.408Z,38.07
2019-01-21T18:20:35.637Z,38.06
2019-01-21T18:23:02.029Z,38.05
2019-01-21T18:25:30.005Z,37.98
2019-01-21T18:27:58.864Z,37.91
2019-01-21T18:30:27.777Z,37.88
2019-01-21T18:32:53.688Z,37.88
2019-01-21T18:35:19.580Z,37.92
2019-01-21T18:37:45.467Z,37.88
2019-01-21T18:40:15.500Z,37.92
2019-01-21T18:42:41.398Z,37.96
2019-01-21T18:45:08.613Z,37.82
2019-01-21T18:47:34.520Z,37.82
2019-01-21T18:50:00.423Z,37.77
2019-01-21T18:52:26.710Z,37.82
2019-01-21T18:54:52.614Z,37.87
2019-01-21T18:57:18.541Z,37.82
2019-01-21T18:59:44.452Z,37.85
2019-01-21T19:02:13.364Z,37.82
2019-01-21T19:04:39.269Z,37.81
2019-01-21T19:07:05.176Z,37.85
2019-01-21T19:09:34.281Z,37.84
2019-01-21T19:12:00.220Z,37.75
2019-01-21T19:14:26.112Z,37.69
2019-01-21T19:16:52.447Z,37.67
2019-01-21T19:19:23.088Z,37.67
2019-01-21T19:21:53.579Z,37.70
2019-01-21T19:24:16.746Z,37.60
2019-01-21T19:26:42.675Z,37.63
2019-01-21T19:29:08.598Z,37.76
2019-01-21T19:31:34.485Z,38.01
2019-01-21T19:34:03.708Z,37.64
2019-01-21T19:36:29.613Z,37.52
2019-01-21T19:38:55.551Z,37.53
2019-01-21T19:41:24.528Z,37.51
2019-01-21T19:43:53.923Z,37.56
2019-01-21T19:46:19.856Z,37.52
2019-01-21T19:48:46.124Z,37.54
2019-01-21T19:51:21.377Z,37.55
2019-01-21T19:53:47.434Z,37.52
2019-01-21T19:56:13.702Z,37.54
2019-01-21T19:58:40.321Z,37.54
2019-01-21T20:01:06.299Z,37.59
2019-01-21T20:03:35.773Z,37.62
2019-01-21T20:06:01.911Z,37.54
2019-01-21T20:08:27.851Z,37.57
2019-01-21T20:10:53.764Z,37.52
2019-01-21T20:13:19.669Z,37.54
2019-01-21T20:15:45.755Z,37.48
2019-01-21T20:18:11.705Z,37.54
2019-01-21T20:20:38.313Z,37.53
2019-01-21T20:23:04.363Z,37.57
2019-01-21T20:25:30.722Z,37.59
2019-01-21T20:27:56.670Z,37.59
2019-01-21T20:30:26.021Z,37.63
2019-01-21T20:32:51.946Z,37.59
2019-01-21T20:35:18.257Z,37.59
2019-01-21T20:37:44.126Z,37.63
2019-01-21T20:40:11.982Z,37.61
2019-01-21T20:42:37.887Z,37.60
2019-01-21T20:45:05.331Z,37.60
2019-01-21T20:47:31.573Z,37.56
2019-01-21T20:49:57.513Z,37.63
2019-01-21T20:52:26.678Z,37.61
2019-01-21T20:54:55.689Z,37.71
2019-01-21T20:57:21.630Z,37.61
2019-01-21T20:59:47.887Z,37.61
2019-01-21T21:02:13.796Z,37.58
2019-01-21T21:04:43.184Z,37.50
2019-01-21T21:07:09.373Z,37.55
2019-01-21T21:09:35.561Z,37.54
2019-01-21T21:12:01.731Z,37.56
2019-01-21T21:14:28.259Z,37.57
2019-01-21T21:16:57.564Z,37.60
2019-01-21T21:19:23.760Z,37.59
2019-01-21T21:21:53.167Z,37.61
2019-01-21T21:24:22.030Z,37.60
2019-01-21T21:26:54.049Z,37.59
2019-01-21T21:29:23.342Z,37.69
2019-01-21T21:31:49.488Z,37.65
2019-01-21T21:34:15.882Z,37.70
2019-01-21T21:36:42.343Z,37.70
2019-01-21T21:39:11.703Z,37.74
2019-01-21T21:41:37.942Z,37.77
2019-01-21T21:44:07.145Z,37.79
2019-01-21T21:46:33.461Z,37.75
2019-01-21T21:48:59.802Z,37.77
2019-01-21T21:51:28.975Z,37.75
2019-01-21T21:53:55.027Z,37.71
2019-01-21T21:56:24.167Z,37.89
2019-01-21T21:58:50.244Z,37.84
2019-01-21T22:01:16.473Z,37.79
2019-01-21T22:03:47.985Z,37.80
2019-01-21T22:06:14.163Z,37.80
2019-01-21T22:08:40.303Z,37.80
2019-01-21T22:11:06.485Z,37.87
2019-01-21T22:13:32.639Z,37.85
2019-01-21T22:15:58.780Z,37.87
2019-01-21T22:18:25.345Z,37.80
2019-01-21T22:20:53.337Z,37.81
2019-01-21T22:23:19.385Z,37.85
2019-01-21T22:25:45.302Z,37.91
2019-01-21T22:28:14.032Z,37.95
2019-01-21T22:30:40.314Z,37.86
2019-01-21T22:33:06.222Z,37.87
2019-01-21T22:35:32.115Z,37.79
2019-01-21T22:37:58.286Z,37.79
2019-01-21T22:40:24.239Z,37.81
2019-01-21T22:42:50.151Z,37.84
2019-01-21T22:45:16.852Z,37.98
2019-01-21T22:47:42.835Z,37.88
2019-01-21T22:50:11.158Z,37.85
2019-01-21T22:52:41.957Z,37.81
2019-01-21T22:55:11.136Z,37.71
2019-01-21T22:57:39.826Z,37.70
2019-01-21T23:00:13.459Z,37.65
2019-01-21T23:02:42.757Z,37.61
2019-01-21T23:05:09.819Z,37.61
2019-01-21T23:07:35.857Z,37.61
2019-01-21T23:10:02.162Z,37.64
2019-01-21T23:12:28.059Z,37.64
2019-01-21T23:14:54.304Z,37.62
2019-01-21T23:17:21.994Z,37.57
2019-01-21T23:19:48.346Z,37.66
2019-01-21T23:22:14.257Z,37.63
2019-01-21T23:24:40.459Z,37.59
2019-01-21T23:27:06.345Z,37.64
2019-01-21T23:29:32.285Z,37.68
2019-01-21T23:31:58.187Z,37.57
2019-01-21T23:34:27.481Z,37.54
2019-01-21T23:36:53.428Z,37.57
2019-01-21T23:39:19.357Z,37.65
2019-01-21T23:41:45.306Z,37.68
2019-01-21T23:44:11.251Z,37.60
2019-01-21T23:46:37.142Z,37.57
2019-01-21T23:49:03.094Z,37.58
2019-01-21T23:51:29.427Z,37.55
2019-01-21T23:53:55.365Z,37.64
2019-01-21T23:56:21.600Z,37.74
2019-01-21T23:58:51.851Z,37.66
